createdAt,value
2022-11-26T00:01:19.255Z,22.25
2022-11-26T00:03:52.123Z,21.77
2022-11-26T00:06:29.815Z,21.00
2022-11-26T00:09:02.288Z,22.37
2022-11-26T00:11:34.340Z,21.97
2022-11-26T00:14:07.757Z,21.00
2022-11-26T00:16:39.915Z,20.45
2022-11-26T00:19:11.045Z,21.95
2022-11-26T00:21:43.357Z,22.10
2022-11-26T00:24:31.304Z,23.42
2022-11-26T00:27:02.342Z,23.07
2022-11-26T00:29:34.673Z,21.37
2022-11-26T00:32:08.544Z,22.22
2022-11-26T00:34:42.715Z,22.07
2022-11-26T00:37:25.105Z,21.07
2022-11-26T00:39:57.068Z,21.52
2022-11-26T00:42:27.649Z,20.65
2022-11-26T00:44:59.882Z,20.65
2022-11-26T00:47:32.319Z,20.05
2022-11-26T00:50:02.850Z,20.60
2022-11-26T00:52:35.240Z,21.42
2022-11-26T00:55:11.829Z,21.25
2022-11-26T00:57:42.540Z,20.75
2022-11-26T01:00:16.378Z,20.75
2022-11-26T01:02:49.574Z,20.75
2022-11-26T01:05:22.211Z,20.37
2022-11-26T01:07:54.346Z,19.90
2022-11-26T01:10:32.237Z,20.90
2022-11-26T01:13:03.247Z,20.63
2022-11-26T01:15:33.809Z,20.00
2022-11-26T01:18:16.665Z,19.90
2022-11-26T01:20:50.757Z,21.62
2022-11-26T01:23:22.228Z,20.90
2022-11-26T01:25:53.461Z,21.17
2022-11-26T01:28:23.997Z,21.30
2022-11-26T01:30:54.708Z,21.25
2022-11-26T01:33:25.293Z,20.35
2022-11-26T01:35:57.658Z,21.30
2022-11-26T01:38:28.123Z,20.40
2022-11-26T01:41:06.933Z,20.70
2022-11-26T01:43:44.479Z,21.02
2022-11-26T01:46:17.824Z,20.55
2022-11-26T01:48:51.447Z,21.37
2022-11-26T01:51:28.806Z,20.70
2022-11-26T01:54:01.645Z,20.60
2022-11-26T01:56:44.533Z,22.00
2022-11-26T01:59:24.754Z,20.23
2022-11-26T02:01:58.353Z,20.88
2022-11-26T02:04:38.492Z,21.45
2022-11-26T02:07:09.225Z,21.10
2022-11-26T02:09:40.086Z,21.05
2022-11-26T02:12:10.697Z,20.62
2022-11-26T02:14:44.154Z,21.20
2022-11-26T02:17:17.633Z,21.60
2022-11-26T02:20:15.460Z,22.82
2022-11-26T02:22:57.667Z,21.68
2022-11-26T02:25:50.858Z,22.82
2022-11-26T02:28:58.137Z,19.70
2022-11-26T02:31:38.084Z,20.30
2022-11-26T02:34:12.214Z,21.20
2022-11-26T02:36:58.067Z,21.12
2022-11-26T02:39:31.060Z,20.80
2022-11-26T02:42:04.394Z,21.73
2022-11-26T02:44:43.929Z,21.62
2022-11-26T02:47:17.996Z,22.07
2022-11-26T02:49:51.249Z,21.33
2022-11-26T02:52:24.322Z,22.80
2022-11-26T02:54:56.648Z,23.40
2022-11-26T02:57:30.187Z,23.92
2022-11-26T03:00:00.776Z,24.95
2022-11-26T03:02:37.705Z,25.40
2022-11-26T03:05:12.075Z,23.62
2022-11-26T03:07:44.994Z,24.10
2022-11-26T03:10:20.273Z,25.60
2022-11-26T03:12:50.827Z,23.75
2022-11-26T03:15:21.723Z,24.10
2022-11-26T03:17:53.993Z,24.77
2022-11-26T03:20:24.647Z,26.05
2022-11-26T03:22:55.177Z,25.65
2022-11-26T03:25:25.792Z,25.20
2022-11-26T03:27:57.495Z,24.90
2022-11-26T03:30:28.204Z,26.93
2022-11-26T03:32:59.169Z,25.97
2022-11-26T03:35:29.748Z,26.33
2022-11-26T03:38:02.662Z,26.42
2022-11-26T03:40:34.066Z,27.85
2022-11-26T03:43:04.633Z,27.07
2022-11-26T03:45:37.731Z,27.90
2022-11-26T03:48:09.812Z,27.05
2022-11-26T03:50:40.412Z,27.40
2022-11-26T03:53:12.507Z,29.23
2022-11-26T03:55:43.879Z,28.02
2022-11-26T03:58:15.944Z,27.73
2022-11-26T04:00:58.958Z,26.57
2022-11-26T04:03:33.840Z,28.07
2022-11-26T04:06:04.942Z,26.70
2022-11-26T04:08:36.795Z,28.15
2022-11-26T04:11:07.447Z,26.48
2022-11-26T04:13:39.070Z,28.57
2022-11-26T04:16:11.086Z,26.00
2022-11-26T04:18:41.599Z,26.75
2022-11-26T04:21:12.661Z,28.20
2022-11-26T04:23:48.005Z,27.48
2022-11-26T04:26:19.660Z,27.62
2022-11-26T04:28:51.623Z,27.58
2022-11-26T04:31:22.779Z,25.57
2022-11-26T04:33:54.485Z,26.23
2022-11-26T04:36:32.650Z,26.35
2022-11-26T04:39:03.387Z,27.40
2022-11-26T04:41:34.895Z,25.85
2022-11-26T04:44:06.575Z,27.05
2022-11-26T04:46:37.460Z,26.10
2022-11-26T04:49:09.953Z,25.15
2022-11-26T04:51:40.899Z,26.00
2022-11-26T04:54:13.132Z,25.27
2022-11-26T04:56:45.075Z,25.20
2022-11-26T04:59:15.630Z,24.67
2022-11-26T05:01:46.158Z,26.50
2022-11-26T05:04:18.607Z,23.83
2022-11-26T05:06:49.254Z,25.02
2022-11-26T05:09:20.027Z,23.30
2022-11-26T05:11:50.640Z,23.42
2022-11-26T05:14:21.220Z,23.87
2022-11-26T05:16:52.007Z,22.98
2022-11-26T05:19:22.636Z,23.85
2022-11-26T05:21:53.553Z,22.85
2022-11-26T05:24:24.185Z,23.05
2022-11-26T05:26:57.129Z,21.50
2022-11-26T05:29:26.937Z,22.00
2022-11-26T05:31:57.784Z,21.15
2022-11-26T05:34:28.491Z,19.37
2022-11-26T05:36:59.017Z,19.57
2022-11-26T05:39:30.074Z,19.30
2022-11-26T05:42:04.844Z,21.30
2022-11-26T05:44:33.325Z,18.55
2022-11-26T05:47:03.822Z,19.42
2022-11-26T05:49:34.310Z,18.42
2022-11-26T05:52:05.085Z,17.92
2022-11-26T05:54:37.570Z,18.62
2022-11-26T05:57:07.548Z,16.50
2022-11-26T05:59:39.063Z,17.75
2022-11-26T06:02:09.736Z,17.67
2022-11-26T06:04:40.604Z,17.77
2022-11-26T06:07:11.633Z,18.52
2022-11-26T06:09:42.242Z,16.12
2022-11-26T06:12:16.483Z,16.75
2022-11-26T06:14:47.200Z,17.67
2022-11-26T06:17:19.832Z,16.75
2022-11-26T06:19:50.366Z,15.85
2022-11-26T06:22:22.064Z,17.17
2022-11-26T06:24:53.878Z,15.05
2022-11-26T06:27:24.413Z,16.50
2022-11-26T06:29:54.872Z,16.20
2022-11-26T06:32:25.440Z,15.72
2022-11-26T06:34:56.002Z,15.25
2022-11-26T06:37:27.246Z,16.90
2022-11-26T06:39:57.768Z,16.73
2022-11-26T06:42:29.876Z,15.38
2022-11-26T06:45:00.567Z,16.62
2022-11-26T06:47:31.188Z,16.35
2022-11-26T06:50:05.149Z,16.15
2022-11-26T06:52:34.515Z,16.62
2022-11-26T06:55:05.350Z,16.77
2022-11-26T06:57:36.056Z,15.80
2022-11-26T07:00:09.235Z,16.32
2022-11-26T07:02:39.954Z,16.97
2022-11-26T07:05:11.757Z,15.60
2022-11-26T07:07:42.359Z,15.43
2022-11-26T07:10:13.748Z,15.60
2022-11-26T07:12:44.301Z,16.10
2022-11-26T07:15:16.556Z,15.15
2022-11-26T07:17:48.409Z,15.85
2022-11-26T07:20:19.489Z,14.83
2022-11-26T07:22:50.059Z,15.48
2022-11-26T07:25:20.613Z,15.25
2022-11-26T07:27:52.146Z,13.88
2022-11-26T07:30:22.907Z,14.50
2022-11-26T07:32:53.645Z,15.85
2022-11-26T07:35:24.456Z,14.35
2022-11-26T07:37:55.044Z,14.58
2022-11-26T07:40:25.472Z,14.98
2022-11-26T07:42:56.093Z,14.18
2022-11-26T07:45:28.776Z,14.93
2022-11-26T07:47:59.278Z,14.87
2022-11-26T07:50:30.013Z,13.75
2022-11-26T07:53:00.441Z,14.18
2022-11-26T07:55:31.024Z,13.93
2022-11-26T07:58:03.032Z,13.48
2022-11-26T08:00:34.092Z,15.10
2022-11-26T08:03:04.639Z,14.50
2022-11-26T08:05:35.191Z,14.30
2022-11-26T08:08:07.279Z,13.80
2022-11-26T08:10:38.188Z,13.62
2022-11-26T08:13:08.714Z,13.15
2022-11-26T08:15:40.230Z,13.43
2022-11-26T08:18:11.896Z,13.70
2022-11-26T08:20:42.497Z,12.13
2022-11-26T08:23:12.942Z,13.10
2022-11-26T08:26:06.000Z,13.78
2022-11-26T08:28:16.736Z,13.93
2022-11-26T08:30:47.627Z,13.68
2022-11-26T08:33:18.231Z,13.43
2022-11-26T08:36:06.223Z,12.37
2022-11-26T08:38:24.610Z,12.10
2022-11-26T08:40:56.117Z,13.10
2022-11-26T08:43:39.817Z,11.88
2022-11-26T08:46:00.720Z,11.63
2022-11-26T08:48:33.100Z,13.03
2022-11-26T08:51:07.040Z,11.28
2022-11-26T08:53:39.562Z,12.45
2022-11-26T08:56:13.141Z,11.95
2022-11-26T08:58:45.686Z,11.48
2022-11-26T09:01:21.790Z,11.30
2022-11-26T09:03:56.177Z,10.63
2022-11-26T09:06:29.591Z,12.50
2022-11-26T09:09:14.019Z,11.18
2022-11-26T09:11:57.361Z,10.90
2022-11-26T09:14:30.751Z,10.58
2022-11-26T09:17:01.771Z,10.32
2022-11-26T09:19:33.730Z,10.43
2022-11-26T09:22:05.821Z,10.63
2022-11-26T09:24:38.004Z,10.05
2022-11-26T09:27:10.269Z,10.82
2022-11-26T09:29:40.770Z,10.90
2022-11-26T09:32:31.079Z,10.35
2022-11-26T09:34:47.274Z,9.58
2022-11-26T09:37:19.086Z,9.63
2022-11-26T09:39:52.247Z,9.38
2022-11-26T09:42:31.429Z,8.38
2022-11-26T09:45:14.659Z,8.68
2022-11-26T09:47:48.179Z,9.08
2022-11-26T09:50:28.664Z,9.53
2022-11-26T09:53:02.231Z,8.78
2022-11-26T09:55:35.940Z,10.05
2022-11-26T09:58:27.491Z,8.78
2022-11-26T10:01:00.910Z,9.33
2022-11-26T10:03:42.379Z,8.65
2022-11-26T10:06:30.864Z,7.75
2022-11-26T10:09:10.039Z,7.70
2022-11-26T10:12:03.858Z,7.47
2022-11-26T10:14:52.419Z,7.03
2022-11-26T10:17:28.733Z,6.42
2022-11-26T10:20:11.223Z,6.75
2022-11-26T10:22:57.497Z,6.20
2022-11-26T10:25:31.567Z,6.72
2022-11-26T10:28:04.530Z,6.15
2022-11-26T10:30:35.176Z,6.62
2022-11-26T10:33:08.129Z,6.85
2022-11-26T10:35:42.568Z,6.12
2022-11-26T10:38:13.196Z,6.17
2022-11-26T10:40:45.283Z,7.12
2022-11-26T10:43:21.844Z,7.53
2022-11-26T10:45:56.941Z,7.08
2022-11-26T10:48:33.443Z,7.78
2022-11-26T10:51:28.230Z,7.80
2022-11-26T10:54:04.898Z,8.40
2022-11-26T10:56:45.600Z,6.92
2022-11-26T10:59:29.373Z,8.15
2022-11-26T11:02:04.832Z,7.78
2022-11-26T11:04:38.514Z,8.65
2022-11-26T11:07:12.611Z,7.57
2022-11-26T11:09:44.631Z,7.33
2022-11-26T11:12:22.855Z,7.55
2022-11-26T11:14:53.802Z,7.85
2022-11-26T11:17:35.892Z,7.67
2022-11-26T11:20:23.593Z,7.25
2022-11-26T11:23:04.854Z,7.03
2022-11-26T11:25:39.776Z,7.00
2022-11-26T11:28:23.973Z,6.70
2022-11-26T11:31:06.409Z,6.65
2022-11-26T11:33:38.811Z,6.92
2022-11-26T11:36:19.238Z,6.70
2022-11-26T11:38:54.155Z,7.87
2022-11-26T11:41:34.093Z,6.85
2022-11-26T11:44:22.830Z,6.85
2022-11-26T11:47:11.107Z,6.80
2022-11-26T11:49:53.294Z,7.80
2022-11-26T11:52:32.713Z,6.58
2022-11-26T11:55:25.462Z,7.83
2022-11-26T11:58:35.854Z,7.03
2022-11-26T12:01:15.090Z,7.20
2022-11-26T12:03:57.575Z,6.42
2022-11-26T12:06:48.146Z,6.72
2022-11-26T12:09:21.736Z,6.72
2022-11-26T12:12:03.035Z,7.42
2022-11-26T12:14:47.307Z,7.05
2022-11-26T12:17:33.198Z,6.67
2022-11-26T12:20:17.083Z,6.92
2022-11-26T12:23:02.377Z,7.35
2022-11-26T12:25:38.572Z,8.05
2022-11-26T12:28:23.208Z,7.67
2022-11-26T12:31:01.777Z,7.90
2022-11-26T12:33:43.038Z,8.33
2022-11-26T12:36:23.262Z,8.03
2022-11-26T12:38:58.160Z,8.18
2022-11-26T12:41:54.579Z,7.80
2022-11-26T12:44:31.951Z,8.03
2022-11-26T12:47:22.262Z,7.87
2022-11-26T12:50:07.922Z,7.92
2022-11-26T12:52:54.074Z,8.15
2022-11-26T12:55:37.797Z,7.87
2022-11-26T12:58:15.389Z,8.50
2022-11-26T13:00:46.963Z,8.33
2022-11-26T13:03:19.256Z,8.55
2022-11-26T13:06:09.421Z,7.65
2022-11-26T13:09:06.595Z,8.40
2022-11-26T13:11:49.797Z,7.83
2022-11-26T13:14:37.361Z,7.17
2022-11-26T13:17:17.162Z,8.00
2022-11-26T13:20:05.503Z,7.60
2022-11-26T13:22:42.355Z,8.08
2022-11-26T13:25:43.625Z,7.42
2022-11-26T13:28:20.631Z,7.25
2022-11-26T13:31:28.425Z,7.03
2022-11-26T13:34:20.238Z,7.60
2022-11-26T13:37:06.137Z,8.03
2022-11-26T13:39:52.609Z,8.50
2022-11-26T13:42:35.089Z,8.33
2022-11-26T13:45:26.697Z,7.33
2022-11-26T13:48:00.893Z,7.50
2022-11-26T13:50:34.517Z,6.67
2022-11-26T13:53:25.010Z,7.42
2022-11-26T13:55:55.949Z,8.18
2022-11-26T13:58:29.461Z,7.28
2022-11-26T14:01:20.115Z,7.30
2022-11-26T14:03:59.216Z,6.85
2022-11-26T14:06:34.641Z,7.00
2022-11-26T14:09:13.889Z,7.10
2022-11-26T14:11:52.304Z,7.12
2022-11-26T14:14:30.722Z,7.53
2022-11-26T14:17:07.679Z,7.60
2022-11-26T14:19:44.155Z,7.37
2022-11-26T14:22:23.691Z,7.03
2022-11-26T14:24:57.150Z,7.90
2022-11-26T14:27:36.654Z,8.03
2022-11-26T14:30:20.997Z,7.78
2022-11-26T14:33:01.639Z,8.90
2022-11-26T14:35:39.096Z,8.63
2022-11-26T14:38:26.848Z,8.00
2022-11-26T14:41:04.003Z,7.78
2022-11-26T14:43:36.467Z,9.00
2022-11-26T14:46:19.882Z,7.60
2022-11-26T14:48:52.616Z,7.83
2022-11-26T14:51:26.428Z,7.22
2022-11-26T14:54:01.119Z,8.70
2022-11-26T14:56:33.790Z,9.58
2022-11-26T14:59:05.635Z,9.40
2022-11-26T15:01:36.593Z,9.85
2022-11-26T15:04:08.556Z,10.13
2022-11-26T15:06:43.192Z,10.28
2022-11-26T15:09:21.795Z,10.93
2022-11-26T15:11:55.962Z,12.23
2022-11-26T15:14:52.697Z,11.70
2022-11-26T15:17:29.630Z,11.22
2022-11-26T15:20:04.983Z,11.55
2022-11-26T15:22:45.385Z,11.53
2022-11-26T15:25:24.886Z,13.48
2022-11-26T15:28:06.876Z,12.28
2022-11-26T15:30:39.151Z,12.68
2022-11-26T15:33:12.799Z,11.18
2022-11-26T15:35:44.644Z,11.63
2022-11-26T15:38:21.913Z,12.65
2022-11-26T15:40:59.726Z,11.15
2022-11-26T15:43:48.268Z,10.75
2022-11-26T15:46:21.915Z,9.98
2022-11-26T15:48:58.275Z,9.58
2022-11-26T15:51:40.386Z,10.72
2022-11-26T15:54:49.659Z,10.05
2022-11-26T15:57:08.154Z,9.20
2022-11-26T15:59:46.529Z,9.70
2022-11-26T16:02:26.086Z,8.00
2022-11-26T16:05:10.662Z,7.70
2022-11-26T16:07:38.887Z,9.20
2022-11-26T16:10:19.622Z,8.98
2022-11-26T16:13:11.812Z,8.50
2022-11-26T16:15:55.163Z,9.00
2022-11-26T16:18:29.932Z,8.08
2022-11-26T16:21:07.833Z,8.85
2022-11-26T16:23:38.503Z,8.48
2022-11-26T16:26:19.427Z,9.10
2022-11-26T16:28:51.283Z,8.83
2022-11-26T16:31:22.811Z,8.43
2022-11-26T16:33:55.741Z,8.80
2022-11-26T16:36:31.050Z,8.98
2022-11-26T16:39:01.480Z,8.33
2022-11-26T16:41:32.679Z,8.03
2022-11-26T16:44:05.854Z,8.78
2022-11-26T16:46:40.940Z,7.62
2022-11-26T16:49:12.014Z,7.17
2022-11-26T16:51:42.590Z,7.42
2022-11-26T16:54:14.597Z,8.43
2022-11-26T16:56:48.544Z,8.65
2022-11-26T16:59:23.849Z,8.43
2022-11-26T17:01:54.384Z,8.60
2022-11-26T17:04:28.649Z,8.88
2022-11-26T17:07:00.013Z,9.28
2022-11-26T17:09:33.711Z,8.15
2022-11-26T17:12:04.140Z,8.95
2022-11-26T17:14:37.057Z,8.25
2022-11-26T17:17:09.241Z,8.30
2022-11-26T17:19:41.884Z,8.43
2022-11-26T17:22:13.603Z,8.70
2022-11-26T17:24:44.258Z,9.23
2022-11-26T17:27:17.658Z,8.53
2022-11-26T17:29:48.886Z,9.85
2022-11-26T17:32:20.421Z,9.78
2022-11-26T17:34:52.276Z,9.90
2022-11-26T17:37:31.775Z,10.00
2022-11-26T17:40:03.044Z,11.80
2022-11-26T17:42:37.013Z,10.38
2022-11-26T17:45:08.585Z,10.30
2022-11-26T17:47:40.040Z,10.68
2022-11-26T17:50:28.547Z,10.68
2022-11-26T17:52:59.070Z,11.50
2022-11-26T17:55:29.713Z,12.60
2022-11-26T17:58:01.240Z,12.35
2022-11-26T18:00:32.073Z,13.30
2022-11-26T18:03:04.208Z,12.98
2022-11-26T18:05:39.103Z,14.05
2022-11-26T18:08:07.238Z,12.18
2022-11-26T18:10:43.579Z,12.40
2022-11-26T18:13:18.146Z,12.53
2022-11-26T18:15:48.857Z,11.97
2022-11-26T18:18:19.552Z,11.65
2022-11-26T18:20:50.668Z,13.20
2022-11-26T18:23:21.270Z,12.47
2022-11-26T18:25:53.272Z,12.35
2022-11-26T18:28:25.618Z,13.70
2022-11-26T18:30:59.817Z,12.50
2022-11-26T18:33:30.613Z,12.23
2022-11-26T18:36:02.530Z,12.85
2022-11-26T18:38:33.485Z,13.22
2022-11-26T18:41:06.369Z,14.23
2022-11-26T18:43:40.702Z,12.35
2022-11-26T18:46:17.289Z,12.63
2022-11-26T18:48:49.791Z,12.95
2022-11-26T18:51:20.617Z,13.38
2022-11-26T18:53:51.458Z,13.35
2022-11-26T18:56:24.194Z,13.00
2022-11-26T18:58:56.261Z,12.55
2022-11-26T19:01:30.622Z,12.75
2022-11-26T19:04:01.396Z,12.95
2022-11-26T19:06:34.202Z,13.83
2022-11-26T19:09:15.251Z,12.70
2022-11-26T19:11:47.570Z,12.37
2022-11-26T19:14:18.189Z,12.05
2022-11-26T19:16:51.253Z,13.10
2022-11-26T19:19:22.545Z,13.28
2022-11-26T19:21:59.320Z,12.25
2022-11-26T19:24:26.558Z,12.53
2022-11-26T19:26:57.423Z,12.70
2022-11-26T19:29:29.089Z,12.55
2022-11-26T19:31:59.882Z,13.10
2022-11-26T19:34:32.133Z,13.72
2022-11-26T19:37:02.635Z,14.03
2022-11-26T19:39:33.503Z,13.38
2022-11-26T19:42:04.211Z,11.53
2022-11-26T19:44:36.216Z,12.80
2022-11-26T19:47:06.907Z,13.38
2022-11-26T19:49:37.602Z,13.18
2022-11-26T19:52:09.916Z,15.18
2022-11-26T19:54:40.344Z,15.00
2022-11-26T19:57:10.862Z,14.53
2022-11-26T19:59:41.630Z,14.47
2022-11-26T20:02:12.296Z,14.87
2022-11-26T20:04:43.008Z,14.58
2022-11-26T20:07:14.528Z,14.13
2022-11-26T20:09:46.773Z,15.90
2022-11-26T20:12:17.250Z,14.73
2022-11-26T20:14:48.809Z,15.38
2022-11-26T20:17:20.898Z,14.60
2022-11-26T20:19:52.006Z,15.05
2022-11-26T20:22:27.840Z,15.70
2022-11-26T20:24:56.744Z,16.00
2022-11-26T20:27:28.770Z,14.25
2022-11-26T20:29:59.675Z,14.28
2022-11-26T20:32:34.919Z,15.25
2022-11-26T20:35:06.936Z,15.95
2022-11-26T20:37:37.686Z,15.13
2022-11-26T20:40:09.632Z,16.10
2022-11-26T20:42:40.776Z,16.42
2022-11-26T20:45:11.377Z,15.93
2022-11-26T20:47:44.683Z,16.73
2022-11-26T20:50:16.868Z,16.82
2022-11-26T20:52:50.041Z,16.90
2022-11-26T20:55:22.115Z,17.55
2022-11-26T20:57:52.794Z,17.75
2022-11-26T21:00:27.522Z,17.87
2022-11-26T21:02:56.078Z,17.85
2022-11-26T21:05:28.035Z,18.98
2022-11-26T21:07:58.565Z,16.52
2022-11-26T21:10:29.093Z,19.48
2022-11-26T21:13:01.509Z,18.07
2022-11-26T21:15:31.711Z,18.48
2022-11-26T21:18:02.525Z,18.32
2022-11-26T21:20:36.183Z,17.65
2022-11-26T21:23:05.366Z,19.87
2022-11-26T21:25:41.571Z,18.48
2022-11-26T21:28:15.986Z,17.40
2022-11-26T21:30:47.789Z,17.23
2022-11-26T21:33:19.982Z,16.10
2022-11-26T21:35:50.532Z,15.50
2022-11-26T21:38:26.516Z,15.30
2022-11-26T21:40:53.574Z,16.52
2022-11-26T21:43:24.019Z,15.58
2022-11-26T21:45:54.780Z,18.00
2022-11-26T21:48:25.285Z,17.12
2022-11-26T21:50:55.818Z,18.10
2022-11-26T21:53:26.339Z,19.87
2022-11-26T21:55:56.874Z,17.20
2022-11-26T21:58:27.825Z,17.27
2022-11-26T22:00:58.958Z,16.97
2022-11-26T22:03:29.574Z,17.52
2022-11-26T22:06:01.735Z,17.25
2022-11-26T22:08:34.868Z,17.70
2022-11-26T22:11:14.436Z,16.42
2022-11-26T22:13:47.025Z,16.75
2022-11-26T22:16:19.905Z,16.77
2022-11-26T22:18:51.723Z,17.87
2022-11-26T22:21:25.170Z,16.82
2022-11-26T22:23:55.997Z,16.97
2022-11-26T22:26:27.008Z,16.80
2022-11-26T22:28:59.157Z,16.87
2022-11-26T22:31:37.580Z,17.30
2022-11-26T22:34:13.984Z,17.57
2022-11-26T22:36:45.588Z,17.48
2022-11-26T22:39:19.904Z,16.85
2022-11-26T22:41:52.306Z,17.85
2022-11-26T22:44:24.131Z,17.95
2022-11-26T22:46:55.617Z,16.80
2022-11-26T22:49:28.303Z,17.23
2022-11-26T22:51:58.812Z,17.42
2022-11-26T22:54:29.652Z,18.37
2022-11-26T22:57:00.185Z,16.77
2022-11-26T22:59:35.044Z,17.50
2022-11-26T23:02:07.269Z,17.83
2022-11-26T23:04:43.994Z,16.52
2022-11-26T23:07:18.524Z,17.05
2022-11-26T23:09:49.442Z,17.70
2022-11-26T23:12:23.490Z,17.30
2022-11-26T23:14:54.251Z,17.87
2022-11-26T23:17:27.300Z,17.30
2022-11-26T23:19:59.626Z,17.20
2022-11-26T23:22:30.360Z,18.05
2022-11-26T23:25:02.674Z,16.40
2022-11-26T23:27:35.955Z,17.60
2022-11-26T23:30:08.762Z,17.27
2022-11-26T23:32:41.041Z,17.48
2022-11-26T23:35:11.581Z,18.05
2022-11-26T23:37:45.850Z,17.62
2022-11-26T23:40:18.101Z,17.48
2022-11-26T23:42:51.063Z,17.00
2022-11-26T23:45:23.624Z,18.17
2022-11-26T23:47:59.188Z,17.50
2022-11-26T23:50:36.479Z,18.48
2022-11-26T23:53:08.674Z,19.35
2022-11-26T23:55:40.224Z,18.27
2022-11-26T23:58:10.968Z,18.50
